Time;durP1;ratioP1;P1;durP2;ratioP2;P2;SDS_P1;SDS_P2;PMS_P1;PMS_P2;Temp;Humidity;BMP_temperature;BMP_pressure;BME280_temperature;BME280_humidity;BME280_pressure;Samples;Min_cycle;Max_cycle;Signal;HPM_P1;HPM_P2
2023/03/03 00:00:48;;;;;;;153.88;20.73;;;3.00;99.90;;;;;;5044371;28;20037;-84
2023/03/03 00:03:19;;;;;;;105.72;19.15;;;2.30;99.90;;;;;;5046026;28;20375;-85
2023/03/03 00:05:45;;;;;;;117.35;18.55;;;3.60;99.90;;;;;;5031407;28;20048;-83
2023/03/03 00:08:10;;;;;;;85.32;17.75;;;3.90;99.90;;;;;;5012140;28;20460;-83
2023/03/03 00:10:37;;;;;;;92.88;17.45;;;2.40;99.90;;;;;;5038225;28;20116;-87
2023/03/03 00:13:05;;;;;;;148.57;19.40;;;2.30;99.90;;;;;;5049196;28;21154;-84
2023/03/03 00:15:31;;;;;;;127.07;18.25;;;2.40;99.90;;;;;;5047863;28;20124;-85
2023/03/03 00:17:58;;;;;;;161.43;19.33;;;2.40;99.90;;;;;;5031167;28;20125;-85
2023/03/03 00:20:37;;;;;;;123.45;16.05;;;2.40;99.90;;;;;;5048033;28;20047;-85
2023/03/03 00:23:18;;;;;;;153.25;18.80;;;2.40;99.90;;;;;;5047420;28;20053;-85
2023/03/03 00:25:45;;;;;;;214.00;21.30;;;2.40;99.90;;;;;;5031269;28;20158;-83
2023/03/03 00:28:26;;;;;;;143.25;19.45;;;2.20;99.90;;;;;;5064948;28;20029;-84
2023/03/03 00:30:53;;;;;;;117.57;17.33;;;2.30;99.90;;;;;;5048292;28;20072;-84
2023/03/03 00:33:31;;;;;;;85.65;15.00;;;4.30;99.90;;;;;;5051795;28;20116;-85
2023/03/03 00:36:21;;;;;;;111.30;16.77;;;2.30;99.90;;;;;;5045463;28;20041;-87
2023/03/03 00:38:47;;;;;;;80.30;14.48;;;2.30;99.90;;;;;;5051778;28;20390;-85
2023/03/03 00:41:26;;;;;;;97.05;15.40;;;3.00;99.90;;;;;;5051398;28;20040;-85
2023/03/03 00:43:52;;;;;;;77.38;15.20;;;3.10;99.90;;;;;;5053375;28;20033;-85
2023/03/03 00:46:22;;;;;;;152.65;17.25;;;2.20;99.90;;;;;;5018113;28;20056;-85
2023/03/03 00:48:49;;;;;;;56.88;13.07;;;2.30;99.90;;;;;;5016174;28;20049;-85
2023/03/03 00:51:30;;;;;;;51.58;13.65;;;2.20;99.90;;;;;;5031349;28;20045;-85
2023/03/03 00:53:57;;;;;;;80.95;14.75;;;2.20;99.90;;;;;;5051520;28;20056;-88
2023/03/03 00:56:24;;;;;;;85.45;14.38;;;2.10;99.90;;;;;;5018165;28;20059;-85
2023/03/03 00:58:50;;;;;;;116.60;16.38;;;2.20;99.90;;;;;;5034812;28;20037;-85
2023/03/03 01:01:17;;;;;;;108.28;16.38;;;2.20;99.90;;;;;;5052039;28;20041;-86
2023/03/03 01:03:43;;;;;;;45.55;13.80;;;4.20;99.90;;;;;;5051535;28;20403;-84
2023/03/03 01:06:10;;;;;;;63.35;13.93;;;2.10;99.90;;;;;;5052064;28;20714;-85
2023/03/03 01:08:36;;;;;;;250.90;21.35;;;2.20;99.90;;;;;;5031912;28;20068;-84
2023/03/03 01:11:11;;;;;;;46.90;13.48;;;2.20;99.90;;;;;;5017905;28;20062;-84
2023/03/03 01:13:40;;;;;;;61.03;14.65;;;2.20;99.90;;;;;;5051041;28;20051;-84
2023/03/03 01:16:06;;;;;;;217.27;19.08;;;2.20;99.90;;;;;;5033982;28;20037;-84
2023/03/03 01:18:33;;;;;;;91.50;13.73;;;2.20;99.90;;;;;;5051306;28;20133;-84
2023/03/03 01:21:00;;;;;;;248.55;18.90;;;2.20;99.90;;;;;;5050953;28;20037;-85
2023/03/03 01:23:27;;;;;;;164.60;15.65;;;2.70;99.90;;;;;;5049436;28;20048;-84
2023/03/03 01:25:53;;;;;;;185.38;16.05;;;3.50;99.90;;;;;;5057990;28;20113;-84
2023/03/03 01:28:18;;;;;;;205.85;14.85;;;2.00;99.90;;;;;;5070870;28;20136;-86
2023/03/03 01:30:44;;;;;;;164.30;13.63;;;1.90;99.90;;;;;;5070727;28;20579;-85
2023/03/03 01:33:10;;;;;;;92.43;11.93;;;1.70;99.90;;;;;;5071090;28;20563;-84
2023/03/03 01:35:36;;;;;;;303.98;17.40;;;2.20;99.90;;;;;;5070407;28;20436;-84
2023/03/03 01:38:01;;;;;;;86.55;11.95;;;1.90;99.90;;;;;;5034079;28;20036;-84
2023/03/03 01:40:29;;;;;;;107.57;13.05;;;1.90;99.90;;;;;;5046408;28;20401;-85
2023/03/03 01:42:55;;;;;;;316.52;21.38;;;1.90;99.90;;;;;;5053358;28;20043;-85
2023/03/03 01:45:29;;;;;;;196.20;14.68;;;1.80;99.90;;;;;;5033846;28;20118;-85
2023/03/03 01:47:58;;;;;;;216.45;14.85;;;2.70;99.90;;;;;;5069600;28;20048;-85
2023/03/03 01:50:47;;;;;;;268.02;17.77;;;1.70;99.90;;;;;;5053896;28;20048;-86
2023/03/03 01:53:33;;;;;;;251.52;15.73;;;3.10;99.90;;;;;;5053837;28;20040;-85
2023/03/03 01:56:00;;;;;;;266.08;16.45;;;1.60;99.90;;;;;;5053249;28;20052;-86
2023/03/03 01:58:30;;;;;;;196.10;15.82;;;1.40;99.90;;;;;;5034234;28;20040;-84
2023/03/03 02:01:01;;;;;;;79.05;10.38;;;1.40;99.90;;;;;;5065759;28;20033;-85
2023/03/03 02:03:27;;;;;;;365.95;20.35;;;1.50;99.90;;;;;;5070044;28;20051;-84
2023/03/03 02:05:57;;;;;;;210.13;15.93;;;3.10;99.90;;;;;;5052843;28;20036;-85
2023/03/03 02:08:30;;;;;;;73.30;12.57;;;1.50;99.90;;;;;;5053452;28;20071;-87
2023/03/03 02:10:56;;;;;;;113.10;13.15;;;1.40;99.90;;;;;;5069980;28;20406;-85
2023/03/03 02:13:22;;;;;;;219.40;18.42;;;3.40;99.90;;;;;;5071162;28;20044;-84
2023/03/03 02:15:49;;;;;;;291.67;21.58;;;2.20;99.90;;;;;;5069741;28;20032;-85
2023/03/03 02:18:17;;;;;;;68.22;11.25;;;2.60;99.90;;;;;;5053262;28;20037;-84
2023/03/03 02:20:52;;;;;;;82.50;12.10;;;1.40;99.90;;;;;;5069412;28;20047;-85
2023/03/03 02:23:45;;;;;;;128.25;14.45;;;1.40;99.90;;;;;;5069580;28;20056;-83
2023/03/03 02:26:14;;;;;;;62.40;10.75;;;2.50;99.90;;;;;;5057193;28;20036;-85
2023/03/03 02:28:40;;;;;;;86.45;12.15;;;2.80;99.90;;;;;;5053354;28;20043;-85
2023/03/03 02:31:11;;;;;;;50.45;10.52;;;2.60;99.90;;;;;;5049409;28;20118;-84
2023/03/03 02:33:38;;;;;;;109.75;12.02;;;1.40;99.90;;;;;;5044983;28;20493;-84
2023/03/03 02:36:05;;;;;;;83.97;11.00;;;1.30;99.90;;;;;;5069249;28;20032;-86
2023/03/03 02:38:45;;;;;;;59.50;8.82;;;1.20;99.90;;;;;;5053133;28;20040;-83
2023/03/03 02:41:19;;;;;;;97.00;9.95;;;1.30;99.90;;;;;;5052459;28;20040;-85
2023/03/03 02:44:20;;;;;;;56.78;8.45;;;1.50;99.90;;;;;;5070773;28;20044;-85
2023/03/03 02:46:47;;;;;;;67.45;8.85;;;1.30;99.90;;;;;;5052469;28;20119;-85
2023/03/03 02:49:16;;;;;;;26.25;7.07;;;1.20;99.90;;;;;;5053083;28;20405;-85
2023/03/03 02:51:42;;;;;;;57.53;8.43;;;1.20;99.90;;;;;;5070283;28;20170;-84
2023/03/03 02:54:10;;;;;;;20.60;6.85;;;1.20;99.90;;;;;;5068327;28;20501;-85
2023/03/03 02:56:36;;;;;;;36.15;7.28;;;1.10;99.90;;;;;;5068902;28;20044;-85
2023/03/03 02:59:03;;;;;;;94.22;9.63;;;1.20;99.90;;;;;;5070546;28;20036;-84
2023/03/03 03:01:30;;;;;;;58.65;7.90;;;2.70;99.90;;;;;;5052271;28;20060;-85
2023/03/03 03:03:57;;;;;;;27.25;7.03;;;1.10;99.90;;;;;;5069021;28;20048;-87
2023/03/03 03:06:23;;;;;;;63.67;9.27;;;1.10;99.90;;;;;;5051877;28;20037;-85
2023/03/03 03:08:49;;;;;;;46.42;7.93;;;1.20;99.90;;;;;;5069123;28;20049;-84
2023/03/03 03:11:15;;;;;;;22.85;7.32;;;1.20;99.90;;;;;;5039429;28;20178;-83
2023/03/03 03:13:40;;;;;;;29.77;7.20;;;1.20;99.90;;;;;;5051958;28;20080;-84
2023/03/03 03:16:06;;;;;;;62.83;9.13;;;1.10;99.90;;;;;;5031615;28;20033;-84
2023/03/03 03:18:32;;;;;;;51.50;8.23;;;1.10;99.90;;;;;;5061555;28;20037;-84
2023/03/03 03:21:10;;;;;;;20.20;7.07;;;1.10;99.90;;;;;;5067914;28;20446;-84
2023/03/03 03:23:36;;;;;;;31.05;7.43;;;1.10;99.90;;;;;;5068533;28;20067;-84
2023/03/03 03:26:02;;;;;;;30.77;6.90;;;1.10;99.90;;;;;;5051446;28;20045;-85
2023/03/03 03:28:27;;;;;;;30.23;7.40;;;1.60;99.90;;;;;;5068465;28;20040;-85
2023/03/03 03:30:53;;;;;;;43.47;8.43;;;1.00;99.90;;;;;;5068246;28;20045;-84
2023/03/03 03:33:19;;;;;;;67.22;9.63;;;1.00;99.90;;;;;;5052031;28;20047;-84
2023/03/03 03:35:46;;;;;;;37.85;8.05;;;1.00;99.90;;;;;;5067956;28;20040;-84
2023/03/03 03:38:13;;;;;;;81.93;10.40;;;1.60;99.90;;;;;;5051901;28;20166;-84
2023/03/03 03:40:39;;;;;;;33.20;7.72;;;0.90;99.90;;;;;;5068145;28;20123;-83
2023/03/03 03:43:05;;;;;;;26.77;8.27;;;1.00;99.90;;;;;;5031704;28;20101;-84
2023/03/03 03:45:31;;;;;;;29.48;7.70;;;0.90;99.90;;;;;;5064651;28;20049;-85
2023/03/03 03:47:57;;;;;;;39.50;8.35;;;0.90;99.90;;;;;;5069483;28;20044;-84
2023/03/03 03:50:23;;;;;;;27.08;7.13;;;0.90;99.90;;;;;;5068692;28;20614;-85
2023/03/03 03:52:49;;;;;;;44.28;8.57;;;0.80;99.90;;;;;;5039700;28;20493;-83
2023/03/03 03:55:15;;;;;;;33.60;8.25;;;0.80;99.90;;;;;;5069627;28;20501;-84
2023/03/03 03:57:41;;;;;;;33.83;8.20;;;0.80;99.90;;;;;;5034640;28;20045;-84
2023/03/03 04:00:08;;;;;;;17.85;7.80;;;1.90;99.90;;;;;;5068201;28;20505;-85
2023/03/03 04:02:35;;;;;;;60.40;9.85;;;0.80;99.90;;;;;;5051203;28;20436;-84
2023/03/03 04:05:00;;;;;;;33.75;8.50;;;0.70;99.90;;;;;;5056391;28;20040;-85
2023/03/03 04:07:26;;;;;;;37.80;8.02;;;0.70;99.90;;;;;;5071355;28;20040;-84
2023/03/03 04:09:52;;;;;;;33.97;8.38;;;0.70;99.90;;;;;;5073949;28;20036;-85
2023/03/03 04:12:18;;;;;;;67.43;9.38;;;0.60;99.90;;;;;;5071951;28;20071;-86
2023/03/03 04:14:43;;;;;;;42.10;8.55;;;0.60;99.90;;;;;;5073963;28;20123;-85
2023/03/03 04:17:20;;;;;;;14.48;7.47;;;1.90;99.90;;;;;;5051787;28;20033;-85
2023/03/03 04:19:46;;;;;;;19.95;7.35;;;0.60;99.90;;;;;;5035546;28;20275;-85
2023/03/03 04:22:15;;;;;;;17.70;6.90;;;0.60;99.90;;;;;;5050231;28;20049;-84
2023/03/03 04:24:40;;;;;;;15.10;7.50;;;0.60;99.90;;;;;;5055241;28;20060;-85
2023/03/03 04:27:08;;;;;;;21.98;7.40;;;0.50;99.90;;;;;;5054879;28;20056;-85
2023/03/03 04:29:35;;;;;;;16.92;7.15;;;0.60;99.90;;;;;;5073374;28;20062;-84
2023/03/03 04:32:00;;;;;;;25.90;8.27;;;0.50;99.90;;;;;;5054952;28;20462;-84
2023/03/03 04:34:26;;;;;;;30.38;8.13;;;0.50;99.90;;;;;;5071686;28;20119;-84
2023/03/03 04:36:52;;;;;;;14.70;6.75;;;0.50;99.90;;;;;;5071637;28;20115;-84
2023/03/03 04:39:18;;;;;;;22.70;6.82;;;0.50;99.90;;;;;;5072086;28;20555;-85
2023/03/03 04:41:44;;;;;;;31.63;7.93;;;0.50;99.90;;;;;;5088249;28;20029;-85
2023/03/03 04:44:09;;;;;;;17.85;6.93;;;0.50;99.90;;;;;;5088390;28;20639;-84
2023/03/03 04:46:35;;;;;;;51.33;8.45;;;0.40;99.90;;;;;;5071151;28;20048;-85
2023/03/03 04:49:01;;;;;;;47.80;8.43;;;0.40;99.90;;;;;;5071568;28;20093;-85
2023/03/03 04:51:26;;;;;;;16.23;6.40;;;0.50;99.90;;;;;;5038369;28;20045;-85
2023/03/03 04:53:52;;;;;;;27.77;7.25;;;0.40;99.90;;;;;;5072899;28;20435;-85
2023/03/03 04:56:18;;;;;;;18.42;6.53;;;0.40;99.90;;;;;;5071362;28;20095;-85
2023/03/03 04:58:44;;;;;;;14.27;6.00;;;0.40;99.90;;;;;;5054875;28;20540;-85
2023/03/03 05:01:13;;;;;;;21.55;7.40;;;0.40;99.90;;;;;;5043915;28;20116;-85
2023/03/03 05:03:39;;;;;;;16.40;6.68;;;0.30;99.90;;;;;;5068508;28;20079;-85
2023/03/03 05:06:05;;;;;;;18.35;7.22;;;0.40;99.90;;;;;;5071003;28;20068;-84
2023/03/03 05:08:31;;;;;;;14.23;6.72;;;0.40;99.90;;;;;;5071337;28;20048;-86
2023/03/03 05:10:58;;;;;;;16.05;7.00;;;0.40;99.90;;;;;;5072229;28;20033;-84
2023/03/03 05:13:26;;;;;;;19.35;7.65;;;0.30;99.90;;;;;;5072152;28;20413;-85
2023/03/03 05:15:56;;;;;;;16.15;7.10;;;1.90;99.90;;;;;;5071311;28;20041;-84
2023/03/03 05:18:26;;;;;;;14.57;7.28;;;0.30;99.90;;;;;;5071289;28;20148;-85
2023/03/03 05:20:52;;;;;;;15.50;7.25;;;0.30;99.90;;;;;;5042479;28;20402;-85
2023/03/03 05:23:18;;;;;;;14.25;6.88;;;1.50;99.90;;;;;;5054432;28;20048;-84
2023/03/03 05:25:45;;;;;;;16.10;8.02;;;0.20;99.90;;;;;;5070349;28;20531;-85
2023/03/03 05:28:11;;;;;;;15.93;7.47;;;1.40;99.90;;;;;;5070900;28;20386;-85
2023/03/03 05:30:37;;;;;;;16.00;7.88;;;0.20;99.90;;;;;;5070600;28;20040;-85
2023/03/03 05:33:04;;;;;;;17.52;7.97;;;0.10;99.90;;;;;;5070625;28;20060;-85
2023/03/03 05:35:30;;;;;;;17.02;8.10;;;0.20;99.90;;;;;;5070541;28;20063;-84
2023/03/03 05:37:57;;;;;;;16.85;7.95;;;1.70;99.90;;;;;;5070297;28;20492;-87
2023/03/03 05:40:23;;;;;;;15.02;7.32;;;0.20;99.90;;;;;;5087425;28;20400;-85
2023/03/03 05:42:50;;;;;;;15.68;7.18;;;1.80;99.90;;;;;;5071647;28;20294;-84
2023/03/03 05:45:19;;;;;;;14.65;7.68;;;1.00;99.90;;;;;;5071844;28;20043;-83
2023/03/03 05:47:46;;;;;;;14.77;7.40;;;0.20;99.90;;;;;;5060607;28;20051;-85
2023/03/03 05:50:11;;;;;;;17.05;6.93;;;0.20;99.90;;;;;;5070779;28;20052;-85
2023/03/03 05:52:37;;;;;;;14.98;7.47;;;0.00;99.90;;;;;;5053402;28;20123;-85
2023/03/03 05:55:03;;;;;;;15.63;7.63;;;0.10;99.90;;;;;;5070271;28;20048;-85
2023/03/03 05:57:29;;;;;;;12.95;6.97;;;0.20;99.90;;;;;;5033249;28;20037;-85
2023/03/03 05:59:55;;;;;;;16.65;7.28;;;0.20;99.90;;;;;;5065968;28;20046;-85
2023/03/03 06:02:21;;;;;;;17.98;7.38;;;0.20;99.90;;;;;;5053348;28;20435;-85
2023/03/03 06:04:46;;;;;;;13.98;7.18;;;0.10;99.90;;;;;;5070247;28;20040;-86
2023/03/03 06:07:12;;;;;;;16.00;7.78;;;0.10;99.90;;;;;;5053180;28;20040;-85
2023/03/03 06:09:38;;;;;;;12.75;6.40;;;0.10;99.90;;;;;;5070742;28;20044;-85
2023/03/03 06:12:04;;;;;;;13.52;6.70;;;0.10;99.90;;;;;;5069594;28;20044;-84
2023/03/03 06:14:29;;;;;;;13.27;6.55;;;0.00;99.90;;;;;;5070062;28;20072;-84
2023/03/03 06:16:56;;;;;;;13.65;6.45;;;0.10;99.90;;;;;;5033428;28;20486;-85
2023/03/03 06:19:23;;;;;;;12.80;6.63;;;0.10;99.90;;;;;;5061401;28;20041;-85
2023/03/03 06:21:48;;;;;;;13.73;6.35;;;0.40;99.90;;;;;;5052813;28;20040;-85
2023/03/03 06:24:14;;;;;;;13.27;6.82;;;1.30;99.90;;;;;;5052916;28;20052;-85
2023/03/03 06:26:40;;;;;;;12.32;6.60;;;0.00;99.90;;;;;;5052831;28;20477;-85
2023/03/03 06:29:06;;;;;;;12.05;6.18;;;0.10;99.90;;;;;;5052570;28;20540;-84
2023/03/03 06:31:32;;;;;;;12.52;6.53;;;0.60;99.90;;;;;;5048044;28;20036;-85
2023/03/03 06:33:58;;;;;;;13.40;6.60;;;0.00;99.90;;;;;;5071037;28;20041;-85
2023/03/03 06:36:24;;;;;;;11.68;6.47;;;0.10;99.90;;;;;;5052248;28;20037;-84
2023/03/03 06:38:50;;;;;;;14.00;6.78;;;0.10;99.90;;;;;;5069817;28;20044;-84
2023/03/03 06:41:16;;;;;;;12.55;6.47;;;0.00;99.90;;;;;;5068961;28;20413;-85
2023/03/03 06:43:42;;;;;;;13.10;6.75;;;0.20;99.90;;;;;;5069586;28;20035;-85
2023/03/03 06:46:08;;;;;;;13.90;7.10;;;0.20;99.90;;;;;;5068884;28;20036;-85
2023/03/03 06:48:34;;;;;;;15.98;7.20;;;0.30;99.90;;;;;;5069209;28;20171;-85
2023/03/03 06:51:01;;;;;;;15.18;7.13;;;;;;;;;;5057414;28;20033;-86
2023/03/03 06:53:27;;;;;;;15.20;7.38;;;0.40;99.90;;;;;;5049167;28;20052;-87
2023/03/03 06:55:57;;;;;;;16.77;7.75;;;0.50;99.90;;;;;;5048694;28;20045;-85
2023/03/03 06:58:26;;;;;;;14.73;8.10;;;0.70;99.90;;;;;;5049135;28;20044;-86
2023/03/03 07:00:56;;;;;;;13.77;6.95;;;0.60;99.90;;;;;;5042191;28;20044;-85
2023/03/03 07:03:35;;;;;;;15.48;7.80;;;0.60;99.90;;;;;;5068876;28;20044;-86
2023/03/03 07:06:07;;;;;;;14.98;7.85;;;2.30;99.90;;;;;;5068898;28;20062;-85
2023/03/03 07:08:34;;;;;;;15.87;7.77;;;0.70;99.90;;;;;;5070155;28;20102;-86
2023/03/03 07:11:06;;;;;;;14.93;8.00;;;0.70;99.90;;;;;;5068583;28;20285;-84
2023/03/03 07:13:33;;;;;;;15.45;7.68;;;0.70;99.90;;;;;;5052348;28;20040;-85
2023/03/03 07:16:08;;;;;;;12.95;6.53;;;0.70;99.90;;;;;;5068748;28;20082;-85
2023/03/03 07:18:44;;;;;;;15.82;7.30;;;0.80;99.90;;;;;;5069061;28;20420;-86
2023/03/03 07:21:17;;;;;;;13.32;7.07;;;2.60;99.90;;;;;;5069651;28;20041;-85
2023/03/03 07:23:45;;;;;;;15.38;7.40;;;0.90;99.90;;;;;;5060075;28;20279;-85
2023/03/03 07:26:13;;;;;;;12.82;6.53;;;0.90;99.90;;;;;;5058604;28;20497;-85
2023/03/03 07:28:49;;;;;;;13.45;7.00;;;2.00;99.90;;;;;;5069958;28;20040;-85
2023/03/03 07:31:36;;;;;;;12.38;6.50;;;1.00;99.90;;;;;;5068234;28;20040;-85
2023/03/03 07:34:14;;;;;;;15.20;7.05;;;1.20;99.90;;;;;;5068800;28;20048;-85
2023/03/03 07:36:40;;;;;;;13.95;7.10;;;3.10;99.90;;;;;;5051747;28;20059;-85
2023/03/03 07:39:35;;;;;;;14.05;7.60;;;1.30;99.90;;;;;;5069763;28;20405;-84
2023/03/03 07:42:26;;;;;;;13.68;7.03;;;1.50;99.90;;;;;;5066719;28;20048;-84
2023/03/03 07:44:54;;;;;;;15.13;7.97;;;1.70;99.90;;;;;;5069669;28;20524;-86
2023/03/03 07:47:25;;;;;;;17.75;8.30;;;3.10;99.90;;;;;;5051382;28;20054;-85
2023/03/03 07:49:53;;;;;;;16.15;8.23;;;1.80;99.90;;;;;;5068418;28;20511;-85
2023/03/03 07:52:25;;;;;;;19.85;8.57;;;3.30;99.90;;;;;;5069232;28;20040;-85
2023/03/03 07:54:52;;;;;;;18.40;9.75;;;1.80;99.90;;;;;;5067950;28;20056;-85
2023/03/03 07:57:30;;;;;;;18.15;9.10;;;1.80;99.90;;;;;;5051299;28;20115;-85
2023/03/03 08:00:07;;;;;;;17.42;8.82;;;0.60;99.90;;;;;;5051416;28;20527;-84
2023/03/03 08:02:46;;;;;;;18.27;8.52;;;1.90;99.90;;;;;;5069161;28;20159;-84
2023/03/03 08:05:37;;;;;;;14.77;7.82;;;1.90;99.90;;;;;;5051943;28;20036;-84
2023/03/03 08:08:09;;;;;;;14.90;7.88;;;1.90;99.90;;;;;;5068104;28;20041;-85
2023/03/03 08:10:38;;;;;;;15.80;7.70;;;1.90;99.90;;;;;;5068164;28;20400;-84
2023/03/03 08:13:26;;;;;;;16.55;7.93;;;2.00;99.90;;;;;;5069064;28;20041;-83
2023/03/03 08:16:00;;;;;;;14.27;7.40;;;1.80;99.90;;;;;;5067819;28;20492;-84
2023/03/03 08:18:32;;;;;;;13.30;7.05;;;2.10;99.90;;;;;;5051689;28;20393;-83
2023/03/03 08:21:08;;;;;;;15.48;7.88;;;2.10;99.90;;;;;;5067866;28;20405;-83
2023/03/03 08:23:34;;;;;;;14.15;7.80;;;2.20;99.90;;;;;;5059331;28;20136;-83
2023/03/03 08:26:00;;;;;;;14.20;7.80;;;2.40;99.90;;;;;;5062717;28;20116;-85
2023/03/03 08:28:26;;;;;;;16.00;7.00;;;3.80;99.90;;;;;;5051507;28;20623;-85
2023/03/03 08:30:52;;;;;;;13.38;7.43;;;2.30;99.90;;;;;;5084254;28;20042;-83
2023/03/03 08:33:18;;;;;;;15.13;7.45;;;2.30;99.90;;;;;;5054099;28;20083;-84
2023/03/03 08:35:44;;;;;;;12.63;7.20;;;2.30;99.90;;;;;;5068816;28;20084;-85
2023/03/03 08:38:11;;;;;;;15.65;7.22;;;2.40;99.90;;;;;;5067916;28;20115;-84
2023/03/03 08:40:37;;;;;;;14.43;7.25;;;3.70;99.90;;;;;;5069217;28;20037;-83
2023/03/03 08:43:04;;;;;;;13.20;6.45;;;2.40;99.90;;;;;;5067806;28;20036;-84
2023/03/03 08:45:30;;;;;;;15.85;6.82;;;3.80;99.90;;;;;;5067894;28;20044;-85
2023/03/03 08:47:56;;;;;;;11.95;6.13;;;2.40;99.90;;;;;;5068930;28;20033;-86
2023/03/03 08:50:21;;;;;;;13.07;6.88;;;4.40;99.90;;;;;;5069130;28;20047;-85
2023/03/03 08:52:47;;;;;;;12.60;6.57;;;4.10;99.90;;;;;;5071028;28;20040;-85
2023/03/03 08:55:13;;;;;;;12.82;7.05;;;2.50;99.90;;;;;;5071296;28;20409;-85
2023/03/03 08:57:39;;;;;;;12.93;6.90;;;2.50;99.90;;;;;;5072300;28;20040;-85
2023/03/03 09:00:07;;;;;;;15.50;7.40;;;2.60;99.90;;;;;;5054795;28;20040;-85
2023/03/03 09:02:33;;;;;;;12.90;6.28;;;2.60;99.90;;;;;;5070630;28;20066;-85
2023/03/03 09:04:59;;;;;;;14.93;6.95;;;2.60;99.90;;;;;;5054626;28;20045;-85
2023/03/03 09:07:24;;;;;;;14.50;6.57;;;2.40;99.90;;;;;;5074047;28;20131;-85
2023/03/03 09:09:50;;;;;;;13.80;7.10;;;2.80;99.90;;;;;;5071377;28;20052;-84
2023/03/03 09:12:21;;;;;;;15.07;7.43;;;2.90;99.90;;;;;;5070653;28;20040;-85
2023/03/03 09:14:47;;;;;;;14.68;7.22;;;2.90;99.90;;;;;;5041198;28;20064;-85
2023/03/03 09:17:31;;;;;;;15.68;7.03;;;3.10;99.90;;;;;;5054422;28;20064;-84
2023/03/03 09:20:01;;;;;;;12.88;6.43;;;3.10;99.90;;;;;;5072701;28;20032;-84
2023/03/03 09:22:27;;;;;;;13.52;6.82;;;3.10;99.90;;;;;;5070485;28;20045;-85
2023/03/03 09:24:56;;;;;;;12.93;6.68;;;4.90;99.90;;;;;;5071105;28;20186;-84
2023/03/03 09:27:36;;;;;;;13.05;6.10;;;3.40;99.90;;;;;;5070443;28;20097;-84
2023/03/03 09:30:24;;;;;;;12.98;6.97;;;4.80;99.90;;;;;;5072289;28;20040;-84
2023/03/03 09:32:50;;;;;;;11.85;6.40;;;3.60;99.90;;;;;;5070544;28;20032;-85
2023/03/03 09:35:22;;;;;;;13.68;6.70;;;;;;;;;;5070834;28;20078;-84
2023/03/03 09:37:50;;;;;;;13.63;7.03;;;3.80;99.90;;;;;;5070616;28;20075;-83
2023/03/03 09:40:43;;;;;;;12.70;7.20;;;6.00;99.90;;;;;;5053975;28;20064;-86
2023/03/03 09:43:22;;;;;;;12.63;6.70;;;4.00;99.90;;;;;;5070579;28;20037;-86
2023/03/03 09:46:06;;;;;;;11.82;6.35;;;4.10;99.90;;;;;;5070348;28;20040;-84
2023/03/03 09:48:51;;;;;;;12.50;6.20;;;4.20;99.90;;;;;;5070752;28;20060;-87
2023/03/03 09:51:35;;;;;;;12.25;6.30;;;4.30;99.90;;;;;;5069811;28;20064;-86
2023/03/03 09:54:25;;;;;;;12.05;6.10;;;4.80;99.90;;;;;;5070192;28;20044;-83
2023/03/03 09:57:29;;;;;;;13.00;6.40;;;4.40;99.90;;;;;;5070284;28;20044;-84
2023/03/03 10:00:14;;;;;;;12.32;6.50;;;4.60;99.90;;;;;;5044592;28;20055;-84
2023/03/03 10:03:02;;;;;;;13.68;6.18;;;4.80;99.90;;;;;;5051650;28;20510;-84
2023/03/03 10:05:47;;;;;;;11.95;6.05;;;4.90;99.90;;;;;;5070076;28;20048;-86
2023/03/03 10:08:36;;;;;;;13.00;6.18;;;5.80;99.90;;;;;;5071216;28;20493;-84
2023/03/03 10:11:12;;;;;;;12.13;6.20;;;5.20;99.90;;;;;;5069803;28;20040;-85
2023/03/03 10:14:01;;;;;;;13.35;6.63;;;7.20;99.90;;;;;;5070078;28;20044;-84
2023/03/03 10:16:56;;;;;;;11.93;6.47;;;5.60;99.90;;;;;;5069743;28;20040;-85
2023/03/03 10:19:39;;;;;;;11.73;6.78;;;5.80;99.90;;;;;;5053043;28;20504;-85
2023/03/03 10:22:10;;;;;;;14.90;6.13;;;6.00;99.90;;;;;;5069086;28;20115;-84
2023/03/03 10:25:12;;;;;;;13.07;5.90;;;6.00;99.90;;;;;;5070049;28;20045;-85
2023/03/03 10:28:00;;;;;;;12.35;6.00;;;7.30;99.90;;;;;;5070594;28;20046;-82
2023/03/03 10:30:44;;;;;;;12.43;5.28;;;6.30;99.90;;;;;;5069469;28;20037;-85
2023/03/03 10:33:35;;;;;;;13.23;5.70;;;6.40;99.90;;;;;;5069927;28;20093;-84
2023/03/03 10:36:15;;;;;;;11.90;5.85;;;6.50;99.90;;;;;;5052394;28;20501;-85
2023/03/03 10:38:54;;;;;;;10.45;5.43;;;6.60;99.90;;;;;;5069594;28;20086;-85
2023/03/03 10:41:31;;;;;;;13.27;4.63;;;6.70;99.90;;;;;;5069207;28;20048;-85
2023/03/03 10:43:56;;;;;;;13.05;4.35;;;8.00;99.90;;;;;;5069448;28;20158;-84
2023/03/03 10:46:34;;;;;;;11.68;4.90;;;6.70;99.90;;;;;;5069267;28;20062;-84
2023/03/03 10:49:26;;;;;;;9.63;4.30;;;6.80;99.90;;;;;;5069300;28;20041;-85
2023/03/03 10:52:07;;;;;;;9.55;3.35;;;6.80;99.90;;;;;;5052346;28;20044;-84
2023/03/03 10:54:59;;;;;;;8.75;2.80;;;6.90;99.90;;;;;;5070412;28;20111;-85
2023/03/03 10:57:58;;;;;;;6.75;2.10;;;6.90;99.90;;;;;;5052217;28;20086;-84
2023/03/03 11:00:34;;;;;;;8.73;2.00;;;7.20;99.90;;;;;;5040137;28;20048;-84
2023/03/03 11:03:52;;;;;;;5.68;1.63;;;6.90;99.90;;;;;;5052475;28;20041;-84
2023/03/03 11:06:25;;;;;;;5.28;1.65;;;6.90;99.90;;;;;;5043294;28;20055;-85
2023/03/03 11:08:55;;;;;;;5.18;1.55;;;8.20;99.90;;;;;;5052333;28;20032;-85
2023/03/03 11:11:33;;;;;;;5.38;1.60;;;6.90;99.90;;;;;;5085387;28;20101;-85
2023/03/03 11:14:17;;;;;;;5.80;1.70;;;6.90;99.90;;;;;;5068382;28;20128;-85
2023/03/03 11:17:01;;;;;;;4.75;1.75;;;6.90;99.90;;;;;;5069780;28;20043;-84
2023/03/03 11:19:51;;;;;;;6.32;1.85;;;6.80;99.90;;;;;;5068576;28;20036;-84
2023/03/03 11:22:53;;;;;;;6.50;1.98;;;7.10;99.90;;;;;;5067851;28;20524;-84
2023/03/03 11:25:40;;;;;;;7.10;1.70;;;7.10;99.90;;;;;;5068662;28;20094;-84
2023/03/03 11:28:16;;;;;;;5.82;1.50;;;7.10;99.90;;;;;;5070046;28;20037;-84
2023/03/03 11:30:51;;;;;;;6.97;1.60;;;7.10;99.90;;;;;;5068036;28;20128;-85
2023/03/03 11:33:16;;;;;;;5.72;1.90;;;7.10;99.90;;;;;;5068578;28;20174;-86
2023/03/03 11:36:06;;;;;;;7.25;1.70;;;8.40;99.90;;;;;;5068037;28;20072;-85
2023/03/03 11:38:39;;;;;;;4.43;1.30;;;7.10;99.90;;;;;;5051119;28;20091;-84
2023/03/03 11:41:19;;;;;;;5.40;1.83;;;7.10;99.90;;;;;;5067776;28;20043;-85
2023/03/03 11:44:08;;;;;;;6.82;1.70;;;7.20;99.90;;;;;;5068382;28;20115;-86
2023/03/03 11:46:47;;;;;;;6.10;1.60;;;7.20;99.90;;;;;;5036321;28;20053;-86
2023/03/03 11:49:24;;;;;;;6.60;1.60;;;7.10;99.90;;;;;;5051255;28;20032;-85
2023/03/03 11:52:13;;;;;;;5.80;1.50;;;7.40;99.90;;;;;;5050989;28;20043;-86
2023/03/03 11:54:52;;;;;;;5.15;1.33;;;7.50;99.90;;;;;;5068571;28;20098;-85
2023/03/03 11:57:34;;;;;;;4.40;1.70;;;7.40;99.90;;;;;;5067857;28;20298;-85
2023/03/03 12:00:08;;;;;;;7.90;1.52;;;7.40;99.90;;;;;;5067872;28;20033;-84
2023/03/03 12:03:11;;;;;;;9.60;1.98;;;7.20;99.90;;;;;;5067721;28;20039;-85
2023/03/03 12:05:57;;;;;;;6.35;1.40;;;7.10;99.90;;;;;;5051571;28;20086;-84
2023/03/03 12:08:28;;;;;;;6.00;1.30;;;7.00;99.90;;;;;;5068494;28;20451;-85
2023/03/03 12:10:57;;;;;;;5.07;1.50;;;7.10;99.90;;;;;;5067604;28;20598;-85
2023/03/03 12:13:58;;;;;;;6.50;1.52;;;7.10;99.90;;;;;;5068099;28;20044;-85
2023/03/03 12:16:55;;;;;;;4.45;1.20;;;7.30;99.90;;;;;;5045404;28;20060;-84
2023/03/03 12:19:46;;;;;;;8.60;1.80;;;7.70;99.90;;;;;;5035039;28;20107;-84
2023/03/03 12:22:33;;;;;;;5.85;1.55;;;8.00;99.90;;;;;;5065103;28;20036;-84
2023/03/03 12:25:15;;;;;;;5.90;1.50;;;8.30;99.90;;;;;;5068191;28;20112;-84
2023/03/03 12:27:52;;;;;;;7.82;1.90;;;8.50;99.90;;;;;;5071354;28;20044;-85
2023/03/03 12:30:31;;;;;;;8.00;1.65;;;8.50;99.90;;;;;;5071917;28;20119;-86
2023/03/03 12:33:05;;;;;;;11.52;2.05;;;8.40;99.90;;;;;;5071968;28;20048;-85
2023/03/03 12:35:58;;;;;;;8.38;1.83;;;8.40;99.90;;;;;;5071467;28;20044;-85
2023/03/03 12:38:57;;;;;;;10.18;1.90;;;8.30;99.90;;;;;;5055100;28;20582;-84
2023/03/03 12:41:35;;;;;;;9.45;2.00;;;8.30;99.90;;;;;;5071575;28;20115;-85
2023/03/03 12:44:05;;;;;;;8.30;1.73;;;8.20;99.90;;;;;;5071637;28;20044;-84
2023/03/03 12:46:56;;;;;;;7.72;1.92;;;8.80;99.90;;;;;;5071490;28;20125;-85
2023/03/03 12:49:36;;;;;;;9.00;1.80;;;8.20;99.90;;;;;;5071583;28;20119;-84
2023/03/03 12:52:24;;;;;;;12.05;2.20;;;8.10;99.90;;;;;;5071184;28;20498;-84
2023/03/03 12:55:13;;;;;;;6.72;1.60;;;8.20;99.90;;;;;;5071381;28;20528;-85
2023/03/03 12:57:55;;;;;;;8.23;1.95;;;8.00;99.90;;;;;;5071035;28;20082;-85
2023/03/03 13:00:36;;;;;;;6.90;1.73;;;8.00;99.90;;;;;;5070928;28;20107;-85
2023/03/03 13:03:37;;;;;;;9.18;1.80;;;8.00;99.90;;;;;;5054302;28;20043;-85
2023/03/03 13:06:16;;;;;;;9.73;1.80;;;8.00;99.90;;;;;;5054271;28;20045;-84
2023/03/03 13:09:05;;;;;;;7.32;1.98;;;7.90;99.90;;;;;;5071319;28;20089;-85
2023/03/03 13:11:37;;;;;;;14.02;2.47;;;7.80;99.90;;;;;;5071010;28;20470;-85
2023/03/03 13:14:25;;;;;;;8.75;2.00;;;7.90;99.90;;;;;;5070992;28;20055;-84